createdAt,value
2023-06-13T00:01:03.150Z,100430.88
2023-06-13T00:03:50.986Z,100431.84
2023-06-13T00:06:18.833Z,100432.06
2023-06-13T00:08:46.642Z,100430.23
2023-06-13T00:11:15.532Z,100437.99
2023-06-13T00:13:43.273Z,100437.82
2023-06-13T00:16:14.241Z,100439.71
2023-06-13T00:18:41.994Z,100439.69
2023-06-13T00:21:15.620Z,100437.16
2023-06-13T00:23:43.834Z,100434.33
2023-06-13T00:26:11.603Z,100429.53
2023-06-13T00:28:39.777Z,100427.34
2023-06-13T00:31:18.212Z,100427.75
2023-06-13T00:33:46.104Z,100425.77
2023-06-13T00:36:18.042Z,100420.48
2023-06-13T00:38:46.053Z,100409.79
2023-06-13T00:41:13.757Z,100407.92
2023-06-13T00:43:41.731Z,100406.35
2023-06-13T00:46:25.955Z,100405.92
2023-06-13T00:48:54.048Z,100405.48
2023-06-13T00:51:22.734Z,100406.84
2023-06-13T00:53:51.952Z,100405.61
2023-06-13T00:56:20.120Z,100402.42
2023-06-13T00:58:47.954Z,100401.48
2023-06-13T01:01:20.919Z,100397.91
2023-06-13T01:03:51.998Z,100400.28
2023-06-13T01:06:25.930Z,100397.23
2023-06-13T01:08:59.731Z,100390.05
2023-06-13T01:11:36.347Z,100383.66
2023-06-13T01:14:22.287Z,100380.44
2023-06-13T01:16:55.838Z,100379.84
2023-06-13T01:19:40.262Z,100380.59
2023-06-13T01:22:11.414Z,100381.43
2023-06-13T01:24:54.869Z,100380.75
2023-06-13T01:27:30.502Z,100374.69
2023-06-13T01:30:00.251Z,100375.11
2023-06-13T01:32:29.265Z,100374.77
2023-06-13T01:34:58.359Z,100368.75
2023-06-13T01:37:29.767Z,100369.00
2023-06-13T01:39:58.152Z,100368.69
2023-06-13T01:42:29.113Z,100366.70
2023-06-13T01:45:17.839Z,100370.20
2023-06-13T01:48:02.778Z,100367.19
2023-06-13T01:50:36.722Z,100368.16
2023-06-13T01:53:09.508Z,100373.63
2023-06-13T01:56:03.125Z,100368.89
2023-06-13T01:58:36.626Z,100366.56
2023-06-13T02:01:07.603Z,100368.36
2023-06-13T02:03:35.719Z,100364.07
2023-06-13T02:06:04.202Z,100364.64
2023-06-13T02:08:33.851Z,100364.69
2023-06-13T02:11:13.005Z,100355.77
2023-06-13T02:13:40.776Z,100356.08
2023-06-13T02:16:12.447Z,100358.09
2023-06-13T02:18:40.766Z,100356.55
2023-06-13T02:21:11.432Z,100356.45
2023-06-13T02:23:38.866Z,100359.19
2023-06-13T02:26:08.208Z,100356.70
2023-06-13T02:28:38.531Z,100360.67
2023-06-13T02:31:05.928Z,100358.75
2023-06-13T02:33:54.016Z,100358.10
2023-06-13T02:36:35.604Z,100355.49
2023-06-13T02:39:06.334Z,100359.17
2023-06-13T02:41:33.585Z,100358.00
2023-06-13T02:44:01.695Z,100360.89
2023-06-13T02:46:29.434Z,100357.89
2023-06-13T02:48:56.778Z,100358.66
2023-06-13T02:51:24.240Z,100358.41
2023-06-13T02:53:52.008Z,100355.17
2023-06-13T02:56:19.667Z,100351.58
2023-06-13T02:58:47.057Z,100352.09
2023-06-13T03:01:17.608Z,100349.65
2023-06-13T03:03:48.876Z,100350.48
2023-06-13T03:06:37.672Z,100351.98
2023-06-13T03:09:05.629Z,100351.96
2023-06-13T03:11:40.557Z,100352.10
2023-06-13T03:14:07.943Z,100353.89
2023-06-13T03:16:37.061Z,100355.47
2023-06-13T03:19:05.090Z,100352.36
2023-06-13T03:21:32.470Z,100349.60
2023-06-13T03:24:00.370Z,100352.45
2023-06-13T03:26:29.957Z,100348.16
2023-06-13T03:29:00.678Z,100349.79
2023-06-13T03:31:28.746Z,100351.61
2023-06-13T03:33:56.889Z,100349.98
2023-06-13T03:36:28.074Z,100349.46
2023-06-13T03:38:58.783Z,100349.17
2023-06-13T03:41:27.500Z,100349.46
2023-06-13T03:43:54.794Z,100349.81
2023-06-13T03:46:22.384Z,100348.41
2023-06-13T03:48:51.324Z,100348.79
2023-06-13T03:51:18.751Z,100344.54
2023-06-13T03:53:48.314Z,100345.84
2023-06-13T03:56:15.531Z,100343.96
2023-06-13T03:58:43.904Z,100338.38
2023-06-13T04:01:12.300Z,100342.19
2023-06-13T04:03:41.321Z,100341.63
2023-06-13T04:06:12.386Z,100339.95
2023-06-13T04:08:42.845Z,100339.86
2023-06-13T04:11:10.256Z,100343.34
2023-06-13T04:13:38.537Z,100343.58
2023-06-13T04:16:06.380Z,100341.69
2023-06-13T04:18:34.587Z,100341.12
2023-06-13T04:21:22.848Z,100337.73
2023-06-13T04:23:51.089Z,100336.40
2023-06-13T04:26:19.212Z,100333.06
2023-06-13T04:28:46.669Z,100331.15
2023-06-13T04:31:14.229Z,100333.23
2023-06-13T04:33:42.393Z,100334.02
2023-06-13T04:36:14.066Z,100331.98
2023-06-13T04:38:45.240Z,100336.20
2023-06-13T04:41:14.881Z,100334.52
2023-06-13T04:43:43.038Z,100331.15
2023-06-13T04:46:11.315Z,100324.69
2023-06-13T04:48:43.541Z,100328.88
2023-06-13T04:51:10.918Z,100332.54
2023-06-13T04:53:39.651Z,100332.62
2023-06-13T04:56:07.983Z,100334.42
2023-06-13T04:58:35.259Z,100335.70
2023-06-13T05:01:04.074Z,100335.02
2023-06-13T05:03:31.496Z,100329.42
2023-06-13T05:05:58.793Z,100334.52
2023-06-13T05:08:30.452Z,100334.88
2023-06-13T05:10:57.617Z,100338.73
2023-06-13T05:13:27.674Z,100334.15
2023-06-13T05:15:58.255Z,100337.50
2023-06-13T05:18:26.158Z,100332.71
2023-06-13T05:20:53.383Z,100333.90
2023-06-13T05:23:22.371Z,100336.33
2023-06-13T05:25:49.847Z,100339.80
2023-06-13T05:28:18.334Z,100337.05
2023-06-13T05:30:45.991Z,100334.08
2023-06-13T05:33:15.386Z,100335.10
2023-06-13T05:35:56.049Z,100329.50
2023-06-13T05:38:26.076Z,100332.82
2023-06-13T05:40:53.334Z,100334.77
2023-06-13T05:43:21.726Z,100337.98
2023-06-13T05:45:50.112Z,100335.31
2023-06-13T05:48:17.973Z,100338.22
2023-06-13T05:50:45.315Z,100334.35
2023-06-13T05:53:15.469Z,100337.16
2023-06-13T05:55:42.861Z,100334.66
2023-06-13T05:58:10.127Z,100334.35
2023-06-13T06:00:38.229Z,100337.98
2023-06-13T06:03:06.408Z,100336.71
2023-06-13T06:05:40.993Z,100336.37
2023-06-13T06:08:08.854Z,100336.79
2023-06-13T06:10:38.943Z,100332.82
2023-06-13T06:13:08.782Z,100331.38
2023-06-13T06:15:45.911Z,100330.58
2023-06-13T06:18:13.939Z,100329.17
2023-06-13T06:20:41.309Z,100333.60
2023-06-13T06:23:08.551Z,100336.38
2023-06-13T06:25:36.377Z,100336.73
2023-06-13T06:28:03.888Z,100336.54
2023-06-13T06:30:31.863Z,100335.73
2023-06-13T06:32:59.934Z,100335.79
2023-06-13T06:35:27.462Z,100333.94
2023-06-13T06:38:07.542Z,100332.37
2023-06-13T06:40:46.442Z,100327.55
2023-06-13T06:43:14.518Z,100329.13
2023-06-13T06:45:42.517Z,100326.30
2023-06-13T06:48:10.163Z,100331.55
2023-06-13T06:50:37.779Z,100326.98
2023-06-13T06:53:04.906Z,100328.04
2023-06-13T06:55:32.227Z,100329.90
2023-06-13T06:57:59.854Z,100329.23
2023-06-13T07:00:27.773Z,100327.59
2023-06-13T07:02:56.150Z,100328.45
2023-06-13T07:05:24.807Z,100331.02
2023-06-13T07:08:03.279Z,100326.67
2023-06-13T07:10:31.046Z,100325.27
2023-06-13T07:12:58.502Z,100325.98
2023-06-13T07:15:25.727Z,100328.67
2023-06-13T07:17:54.494Z,100327.80
2023-06-13T07:20:23.308Z,100331.05
2023-06-13T07:22:50.681Z,100332.97
2023-06-13T07:25:17.965Z,100335.52
2023-06-13T07:27:45.862Z,100333.88
2023-06-13T07:30:14.339Z,100335.04
2023-06-13T07:32:42.027Z,100330.59
2023-06-13T07:35:10.659Z,100329.78
2023-06-13T07:37:42.216Z,100324.08
2023-06-13T07:40:14.763Z,100318.75
2023-06-13T07:42:45.163Z,100318.07
2023-06-13T07:45:13.986Z,100313.73
2023-06-13T07:47:49.199Z,100310.58
2023-06-13T07:50:18.040Z,100310.64
2023-06-13T07:52:45.311Z,100312.89
2023-06-13T07:55:14.306Z,100313.33
2023-06-13T07:57:57.980Z,100317.20
2023-06-13T08:00:26.887Z,100316.30
2023-06-13T08:02:54.570Z,100313.23
2023-06-13T08:05:22.344Z,100311.11
2023-06-13T08:07:49.720Z,100311.98
2023-06-13T08:10:17.436Z,100312.09
2023-06-13T08:12:44.775Z,100307.50
2023-06-13T08:15:12.756Z,100305.86
2023-06-13T08:17:43.303Z,100301.36
2023-06-13T08:20:12.343Z,100301.94
2023-06-13T08:22:42.496Z,100303.67
2023-06-13T08:25:18.950Z,100303.33
2023-06-13T08:27:47.550Z,100303.42
2023-06-13T08:30:15.900Z,100303.52
2023-06-13T08:32:43.664Z,100305.05
2023-06-13T08:35:12.161Z,100303.88
2023-06-13T08:37:40.043Z,100305.52
2023-06-13T08:40:11.398Z,100309.67
2023-06-13T08:42:39.502Z,100305.91
2023-06-13T08:45:08.428Z,100306.87
2023-06-13T08:47:38.419Z,100303.54
2023-06-13T08:50:09.283Z,100299.11
2023-06-13T08:52:41.948Z,100304.02
2023-06-13T08:55:41.954Z,100297.09
2023-06-13T08:58:18.207Z,100299.21
2023-06-13T09:00:48.840Z,100303.49
2023-06-13T09:03:16.623Z,100303.83
2023-06-13T09:06:05.551Z,100306.01
2023-06-13T09:08:34.557Z,100306.53
2023-06-13T09:11:04.797Z,100307.73
2023-06-13T09:13:33.892Z,100309.20
2023-06-13T09:16:06.823Z,100310.34
2023-06-13T09:18:38.434Z,100311.36
2023-06-13T09:21:06.301Z,100306.72
2023-06-13T09:23:34.122Z,100310.00
2023-06-13T09:26:02.515Z,100309.29
2023-06-13T09:28:34.990Z,100310.66
2023-06-13T09:31:14.062Z,100314.34
2023-06-13T09:33:42.607Z,100312.25
2023-06-13T09:36:13.730Z,100311.73
2023-06-13T09:38:42.840Z,100315.13
2023-06-13T09:41:32.547Z,100313.16
2023-06-13T09:44:04.189Z,100315.98
2023-06-13T09:46:41.674Z,100317.38
2023-06-13T09:49:20.141Z,100319.66
2023-06-13T09:51:47.950Z,100321.27
2023-06-13T09:54:25.402Z,100322.15
2023-06-13T09:56:56.384Z,100323.14
2023-06-13T09:59:23.578Z,100317.31
2023-06-13T10:01:51.369Z,100313.98
2023-06-13T10:04:19.736Z,100314.70
2023-06-13T10:06:51.377Z,100313.89
2023-06-13T10:09:18.975Z,100315.69
2023-06-13T10:11:53.028Z,100306.11
2023-06-13T10:14:25.386Z,100303.50
2023-06-13T10:17:08.652Z,100306.95
2023-06-13T10:19:39.016Z,100303.24
2023-06-13T10:22:10.411Z,100304.57
2023-06-13T10:24:58.699Z,100300.57
2023-06-13T10:27:29.702Z,100297.55
2023-06-13T10:30:16.790Z,100298.42
2023-06-13T10:33:04.477Z,100297.82
2023-06-13T10:35:55.408Z,100298.30
2023-06-13T10:39:16.244Z,100293.59
2023-06-13T10:41:53.499Z,100287.54
2023-06-13T10:44:26.192Z,100285.68
2023-06-13T10:46:54.382Z,100287.79
2023-06-13T10:49:22.406Z,100288.23
2023-06-13T10:51:49.999Z,100288.75
2023-06-13T10:54:19.174Z,100282.52
2023-06-13T10:56:47.113Z,100277.27
2023-06-13T10:59:17.984Z,100279.36
2023-06-13T11:01:46.214Z,100277.27
2023-06-13T11:04:18.013Z,100280.65
2023-06-13T11:06:47.046Z,100279.55
2023-06-13T11:09:18.514Z,100276.81
2023-06-13T11:11:49.543Z,100276.30
2023-06-13T11:14:17.738Z,100273.36
2023-06-13T11:16:47.253Z,100271.29
2023-06-13T11:19:18.614Z,100270.84
2023-06-13T11:21:51.870Z,100269.88
2023-06-13T11:24:21.403Z,100270.09
2023-06-13T11:26:51.986Z,100266.35
2023-06-13T11:29:20.268Z,100267.17
2023-06-13T11:31:53.228Z,100270.22
2023-06-13T11:34:25.704Z,100271.15
2023-06-13T11:36:58.139Z,100274.14
2023-06-13T11:41:57.718Z,100277.93
2023-06-13T11:44:26.882Z,100273.95
2023-06-13T11:46:54.222Z,100279.92
2023-06-13T11:49:27.379Z,100278.97
2023-06-13T11:52:14.010Z,100276.66
2023-06-13T11:54:45.226Z,100276.06
2023-06-13T11:57:12.578Z,100277.90
2023-06-13T11:59:40.590Z,100281.41
2023-06-13T12:02:10.237Z,100276.62
2023-06-13T12:04:42.137Z,100268.33
2023-06-13T12:07:11.454Z,100271.04
2023-06-13T12:09:38.712Z,100269.21
2023-06-13T12:12:07.238Z,100265.48
2023-06-13T12:14:34.565Z,100269.02
2023-06-13T12:17:02.321Z,100270.30
2023-06-13T12:19:29.533Z,100275.95
2023-06-13T12:22:01.263Z,100272.29
2023-06-13T12:24:29.078Z,100268.69
2023-06-13T12:26:56.871Z,100273.16
2023-06-13T12:29:29.454Z,100270.94
2023-06-13T12:32:04.724Z,100264.20
2023-06-13T12:34:34.542Z,100260.20
2023-06-13T12:37:06.404Z,100263.10
2023-06-13T12:39:34.765Z,100263.58
2023-06-13T12:42:05.948Z,100264.05
2023-06-13T12:44:36.499Z,100265.42
2023-06-13T12:47:07.979Z,100264.14
2023-06-13T12:49:40.006Z,100260.47
2023-06-13T12:52:09.796Z,100254.80
2023-06-13T12:54:38.023Z,100257.45
2023-06-13T12:57:08.761Z,100257.11
2023-06-13T12:59:40.315Z,100250.91
2023-06-13T13:02:10.179Z,100257.39
2023-06-13T13:04:42.378Z,100257.84
2023-06-13T13:07:13.121Z,100251.64
2023-06-13T13:09:42.783Z,100247.98
2023-06-13T13:12:11.757Z,100246.89
2023-06-13T13:14:39.781Z,100246.80
2023-06-13T13:17:08.460Z,100246.69
2023-06-13T13:19:35.728Z,100242.52
2023-06-13T13:22:03.896Z,100242.83
2023-06-13T13:24:35.464Z,100250.17
2023-06-13T13:27:03.524Z,100242.96
2023-06-13T13:29:31.383Z,100245.30
2023-06-13T13:31:58.925Z,100252.27
2023-06-13T13:34:27.025Z,100244.05
2023-06-13T13:36:55.384Z,100244.76
2023-06-13T13:39:24.589Z,100238.96
2023-06-13T13:41:53.106Z,100233.34
2023-06-13T13:44:20.213Z,100231.89
2023-06-13T13:46:47.282Z,100227.63
2023-06-13T13:49:19.315Z,100225.64
2023-06-13T13:51:50.596Z,100225.91
2023-06-13T13:54:17.904Z,100227.29
2023-06-13T13:56:45.365Z,100230.92
2023-06-13T13:59:12.616Z,100229.30
2023-06-13T14:01:40.248Z,100228.45
2023-06-13T14:04:07.545Z,100227.45
2023-06-13T14:06:34.851Z,100228.64
2023-06-13T14:09:02.758Z,100228.71
2023-06-13T14:11:29.996Z,100231.88
2023-06-13T14:13:58.786Z,100231.61
2023-06-13T14:16:28.729Z,100228.77
2023-06-13T14:18:59.185Z,100230.95
2023-06-13T14:21:26.660Z,100237.42
2023-06-13T14:23:54.505Z,100238.55
2023-06-13T14:26:23.856Z,100239.90
2023-06-13T14:28:51.596Z,100237.77
2023-06-13T14:31:19.257Z,100235.46
2023-06-13T14:33:46.684Z,100227.86
2023-06-13T14:36:14.189Z,100227.21
2023-06-13T14:38:43.175Z,100220.13
2023-06-13T14:41:10.497Z,100219.39
2023-06-13T14:43:39.274Z,100210.45
2023-06-13T14:46:09.510Z,100211.30
2023-06-13T14:48:37.378Z,100213.30
2023-06-13T14:51:04.647Z,100213.61
2023-06-13T14:53:35.116Z,100211.41
2023-06-13T14:56:06.009Z,100209.08
2023-06-13T14:58:33.729Z,100207.58
2023-06-13T15:01:07.143Z,100212.34
2023-06-13T15:03:38.625Z,100214.15
2023-06-13T15:06:06.063Z,100216.54
2023-06-13T15:08:33.509Z,100215.45
2023-06-13T15:11:00.527Z,100211.65
2023-06-13T15:13:27.621Z,100210.04
2023-06-13T15:15:55.317Z,100211.00
2023-06-13T15:18:22.741Z,100208.44
2023-06-13T15:20:50.177Z,100205.10
2023-06-13T15:23:19.193Z,100204.77
2023-06-13T15:25:46.459Z,100199.52
2023-06-13T15:28:13.648Z,100199.98
2023-06-13T15:30:41.152Z,100201.00
2023-06-13T15:33:08.710Z,100207.07
2023-06-13T15:35:36.267Z,100203.42
2023-06-13T15:38:03.571Z,100201.30
2023-06-13T15:40:30.577Z,100199.27
2023-06-13T15:42:58.603Z,100203.51
2023-06-13T15:45:25.955Z,100206.91
2023-06-13T15:47:53.567Z,100206.98
2023-06-13T15:50:21.329Z,100202.81
2023-06-13T15:52:49.498Z,100201.61
2023-06-13T15:55:16.712Z,100201.88
2023-06-13T15:57:43.940Z,100209.48
2023-06-13T16:00:14.692Z,100212.59
2023-06-13T16:02:43.446Z,100216.14
2023-06-13T16:05:11.507Z,100219.96
2023-06-13T16:07:41.299Z,100220.54
2023-06-13T16:10:09.775Z,100224.83
2023-06-13T16:12:37.058Z,100227.61
2023-06-13T16:15:04.561Z,100231.18
2023-06-13T16:17:32.037Z,100227.64
2023-06-13T16:19:59.080Z,100231.55
2023-06-13T16:22:27.022Z,100234.79
2023-06-13T16:24:54.139Z,100239.88
2023-06-13T16:27:21.164Z,100241.38
2023-06-13T16:29:48.856Z,100241.81
2023-06-13T16:32:16.444Z,100244.39
2023-06-13T16:34:43.985Z,100246.79
2023-06-13T16:37:11.715Z,100250.76
2023-06-13T16:39:38.732Z,100254.26
2023-06-13T16:42:08.771Z,100257.91
2023-06-13T16:44:36.736Z,100265.92
2023-06-13T16:47:05.696Z,100267.64
2023-06-13T16:49:33.214Z,100267.69
2023-06-13T16:52:01.244Z,100272.95
2023-06-13T16:54:28.597Z,100275.46
2023-06-13T16:56:56.401Z,100276.33
2023-06-13T16:59:24.669Z,100277.83
2023-06-13T17:01:51.852Z,100277.79
2023-06-13T17:04:19.761Z,100277.54
2023-06-13T17:06:46.960Z,100279.30
2023-06-13T17:09:14.509Z,100274.21
2023-06-13T17:11:41.638Z,100279.48
2023-06-13T17:14:08.918Z,100279.87
2023-06-13T17:16:39.190Z,100276.96
2023-06-13T17:19:06.585Z,100274.80
2023-06-13T17:21:35.128Z,100275.80
2023-06-13T17:24:04.707Z,100272.38
2023-06-13T17:26:34.000Z,100274.96
2023-06-13T17:29:01.118Z,100271.56
2023-06-13T17:31:28.526Z,100271.20
2023-06-13T17:33:56.317Z,100274.70
2023-06-13T17:36:24.085Z,100273.13
2023-06-13T17:38:51.183Z,100271.88
2023-06-13T17:41:18.834Z,100272.40
2023-06-13T17:43:46.022Z,100271.24
2023-06-13T17:46:14.778Z,100270.33
2023-06-13T17:48:45.372Z,100273.79
2023-06-13T17:51:34.027Z,100271.19
2023-06-13T17:54:01.810Z,100274.42
2023-06-13T17:56:29.490Z,100271.34
2023-06-13T17:58:57.466Z,100276.00
2023-06-13T18:01:25.721Z,100272.27
2023-06-13T18:04:01.533Z,100272.48
2023-06-13T18:06:29.695Z,100269.53
2023-06-13T18:08:56.892Z,100272.96
2023-06-13T18:11:24.231Z,100267.73
2023-06-13T18:13:52.780Z,100265.57
2023-06-13T18:16:20.343Z,100266.92
2023-06-13T18:18:47.531Z,100265.30
2023-06-13T18:21:35.984Z,100266.64
2023-06-13T18:24:04.118Z,100266.67
2023-06-13T18:26:31.222Z,100269.74
2023-06-13T18:28:59.977Z,100270.58
2023-06-13T18:31:28.193Z,100269.14
2023-06-13T18:33:56.210Z,100270.33
2023-06-13T18:36:23.710Z,100276.27
2023-06-13T18:38:55.280Z,100272.98
2023-06-13T18:41:30.153Z,100270.52
2023-06-13T18:44:04.563Z,100267.49
2023-06-13T18:46:32.449Z,100267.20
2023-06-13T18:49:00.302Z,100265.14
2023-06-13T18:51:28.878Z,100269.52
2023-06-13T18:54:03.594Z,100271.27
2023-06-13T18:56:34.768Z,100275.64
2023-06-13T18:59:02.285Z,100275.83
2023-06-13T19:01:34.678Z,100274.46
2023-06-13T19:04:02.717Z,100276.89
2023-06-13T19:06:29.874Z,100277.02
2023-06-13T19:08:57.385Z,100276.12
2023-06-13T19:11:24.620Z,100276.81
2023-06-13T19:13:52.501Z,100277.48
2023-06-13T19:16:22.560Z,100281.23
2023-06-13T19:18:50.175Z,100281.56
2023-06-13T19:21:26.785Z,100280.48
2023-06-13T19:23:55.376Z,100280.45
2023-06-13T19:26:26.299Z,100276.59
2023-06-13T19:28:54.375Z,100279.02
2023-06-13T19:31:22.553Z,100276.64
2023-06-13T19:34:00.997Z,100276.66
2023-06-13T19:36:28.468Z,100269.88
2023-06-13T19:38:55.976Z,100266.56
2023-06-13T19:41:23.534Z,100266.59
2023-06-13T19:43:52.244Z,100266.05
2023-06-13T19:46:20.196Z,100268.48
2023-06-13T19:48:48.515Z,100272.15
2023-06-13T19:51:19.744Z,100275.64
2023-06-13T19:53:47.466Z,100279.92
2023-06-13T19:56:14.818Z,100280.25
2023-06-13T19:58:43.166Z,100279.17
2023-06-13T20:01:13.915Z,100277.36
2023-06-13T20:03:42.446Z,100276.77
2023-06-13T20:06:13.013Z,100279.33
2023-06-13T20:08:42.015Z,100273.35
2023-06-13T20:11:10.009Z,100276.45
2023-06-13T20:13:38.909Z,100278.32
2023-06-13T20:16:07.353Z,100279.13
2023-06-13T20:18:34.641Z,100273.92
2023-06-13T20:21:02.672Z,100264.54
2023-06-13T20:23:31.357Z,100269.92
2023-06-13T20:25:59.477Z,100261.90
2023-06-13T20:28:27.675Z,100260.92
2023-06-13T20:30:55.003Z,100267.00
2023-06-13T20:33:22.830Z,100269.31
2023-06-13T20:35:50.144Z,100270.66
2023-06-13T20:38:18.176Z,100270.20
2023-06-13T20:40:47.308Z,100270.58
2023-06-13T20:43:14.525Z,100273.35
2023-06-13T20:45:41.973Z,100272.45
2023-06-13T20:48:09.717Z,100275.40
2023-06-13T20:50:40.056Z,100275.17
2023-06-13T20:53:08.162Z,100277.39
2023-06-13T20:55:35.833Z,100279.24
2023-06-13T20:58:03.225Z,100281.10
2023-06-13T21:00:32.895Z,100283.13
2023-06-13T21:03:03.144Z,100283.04
2023-06-13T21:05:33.011Z,100280.34
2023-06-13T21:08:00.381Z,100280.60
2023-06-13T21:10:29.660Z,100281.17
2023-06-13T21:12:57.912Z,100284.19
2023-06-13T21:15:26.880Z,100289.83
2023-06-13T21:17:55.702Z,100289.41
2023-06-13T21:20:25.743Z,100284.48
2023-06-13T21:22:57.333Z,100290.70
2023-06-13T21:25:25.362Z,100292.30
2023-06-13T21:27:53.117Z,100293.40
2023-06-13T21:30:21.122Z,100295.03
2023-06-13T21:32:49.078Z,100293.20
2023-06-13T21:35:16.819Z,100294.99
2023-06-13T21:37:44.766Z,100290.23
2023-06-13T21:40:13.821Z,100292.02
2023-06-13T21:42:42.087Z,100289.37
2023-06-13T21:45:10.504Z,100286.87
2023-06-13T21:47:39.332Z,100287.23
2023-06-13T21:50:09.266Z,100286.64
2023-06-13T21:52:36.965Z,100284.50
2023-06-13T21:55:10.966Z,100286.89
2023-06-13T21:57:38.720Z,100293.27
2023-06-13T22:00:16.383Z,100297.52
2023-06-13T22:02:45.368Z,100299.83
2023-06-13T22:05:14.091Z,100302.29
2023-06-13T22:07:41.201Z,100295.91
2023-06-13T22:10:09.411Z,100291.70
2023-06-13T22:12:36.936Z,100288.20
2023-06-13T22:15:04.040Z,100284.27
2023-06-13T22:17:31.692Z,100278.65
2023-06-13T22:20:00.876Z,100273.21
2023-06-13T22:22:31.129Z,100273.86
2023-06-13T22:24:58.126Z,100274.37
2023-06-13T22:27:25.076Z,100269.80
2023-06-13T22:29:53.030Z,100269.29
2023-06-13T22:32:20.957Z,100262.95
2023-06-13T22:34:47.976Z,100249.29
2023-06-13T22:37:15.131Z,100253.41
2023-06-13T22:39:42.204Z,100247.77
2023-06-13T22:42:11.867Z,100250.67
2023-06-13T22:44:39.133Z,100251.37
2023-06-13T22:47:06.731Z,100246.85
2023-06-13T22:49:34.468Z,100244.23
2023-06-13T22:52:02.288Z,100242.79
2023-06-13T22:54:29.144Z,100237.40
2023-06-13T22:56:56.105Z,100238.25
2023-06-13T22:59:23.200Z,100238.90
2023-06-13T23:01:51.059Z,100241.17
2023-06-13T23:04:18.494Z,100243.05
2023-06-13T23:06:46.150Z,100241.48
2023-06-13T23:09:13.139Z,100236.61
2023-06-13T23:11:40.160Z,100235.59
2023-06-13T23:14:07.242Z,100238.94
2023-06-13T23:16:34.513Z,100236.93
2023-06-13T23:19:02.393Z,100234.73
2023-06-13T23:21:30.357Z,100236.11
2023-06-13T23:23:58.494Z,100238.34
2023-06-13T23:26:25.672Z,100235.86
2023-06-13T23:28:53.105Z,100236.23
2023-06-13T23:31:21.851Z,100236.14
2023-06-13T23:33:49.941Z,100239.14
2023-06-13T23:36:17.585Z,100237.36
2023-06-13T23:38:45.420Z,100235.65
2023-06-13T23:41:12.742Z,100235.61
2023-06-13T23:43:40.092Z,100231.98
2023-06-13T23:46:07.739Z,100230.83
2023-06-13T23:48:35.123Z,100227.30
2023-06-13T23:51:02.510Z,100230.55
2023-06-13T23:53:29.851Z,100233.73
2023-06-13T23:55:56.901Z,100232.77
2023-06-13T23:58:24.084Z,100234.58
